Terminal Aerodrome Forecast
Issued by NWS

Home | Current Version | Previous Version | Text Only | Print | Product List | Glossary On
Versions: 1 2 3 4 5 6 7 8 9 10 11 12 13 14 15 16 17
194
FTUS44 KLZK 292338
TAFADF
TAF
KADF 292338Z 3000/3024 14009KT 5SM TSRA BR BKN002 OVC025CB
      TEMPO 3000/3004 VRB15G30KT 2SM TSRA BR BKN002 OVC020CB
     FM300400 12009KT 4SM -TSRA BR OVC007CB
      TEMPO 3004/3008 VRB15G30KT 2SM TSRA BR BKN002 OVC020CB
     FM300800 13007KT 4SM -TSRA BR BKN005 OVC015CB
      TEMPO 3008/3012 1SM -RA BR OVC002
     FM301200 15005KT 3SM -TSRA BR BKN005CB
     FM301500 19010KT 6SM -RA BR BKN008 OVC015=

USA.gov is the U.S. government's official web portal to all federal, state and local government web resources and services.